Aurora, NY (13026)

8:32 AM EDT on August 04, 2015 (GMT -0400)
Sunnyside Dairy | | Change Station
CLOSE
Current Station
Personal Weather Station
Location: Scipio Center, NY
Elevation: 1168 ft
Nearby Weather Stations

Elev 1168 ft 42.73 °N, 76.57 °W | Updated 8 seconds ago

Partly Cloudy
Partly Cloudy
66.1 °F
Feels Like 66.1 °F
N
4.0
Wind Variable Wind from NW
Gusts 6.0 mph

Today
High -- | Low -- °F
--% Chance of Precip.
Yesterday
High -- | Low -- °F
Precip. -- in
6:00 AM 8:23 PM
Waning Gibbous, 78% visible
Pressure 29.89 in
Visibility 10.0 miles
Clouds Clear
Dew Point 64 °F
Humidity 93%
Rainfall 0.00 in
Snow Depth Not available.
UV 1 out of 12
Pollen 7.00 out of 12
Air Quality Not available.
Flu Activity Not available.
METAR KITH 041156Z 00000KT 10SM VCFG CLR 18/17 A2990 RMK AO2 51011 70037 T01770166 10177 20144 SLP121

More Conditions Fewer Conditions

Pressure 29.89 in
Visibility 10.0 miles
Clouds Clear
Dew Point 64 °F
Humidity 93%
Rainfall 0.00 in
Snow Depth Not available.
UV 1 out of 12
Pollen 7.00 out of 12
Air Quality Not available.
Flu Activity Not available.
METAR KITH 041156Z 00000KT 10SM VCFG CLR 18/17 A2990 RMK AO2 51011 70037 T01770166 10177 20144 SLP121

More Conditions Fewer Conditions

10-Day Weather Forecast

×

Almanac

Astronomy

Aug. 04, 2015 Rise Set
Actual Time
Civil Twilight
Nautical Twilight
Astronomical Twilight
Moon
Length of Visible Light
Length of Day
Tomorrow will be .
, % of the Moon is Illuminated

Today's Extremes

State Highs State Lows

Community

WunderPhotos

Upload Photos

1,843,911 photos uploaded!

WunderBlogs® & News

Nearby

Air Quality

  Air Quality AQ Index Pollutant
Not available.

Snow Depth

Station Depth Elevation

Earthquake Activity

City Distance Mag. Time & Date
Minimum magnitude displayed is 2.5.

Coastal Water Temperatures

Place Temperature

Stations

Nearby Weather Stations

Station Location Temp. Windchill Dew Point Humidity Wind Precip. Elev Updated Type